Time;durP1;ratioP1;P1;durP2;ratioP2;P2;SDS_P1;SDS_P2;PMS_P1;PMS_P2;Temp;Humidity;BMP_temperature;BMP_pressure;BME280_temperature;BME280_humidity;BME280_pressure;Samples;Min_cycle;Max_cycle;Signal;HPM_P1;HPM_P2
2022/04/07 00:01:27;;;;;;;4.95;3.63;;;;;;;;;;4995221;28;20033;-86
2022/04/07 00:03:53;;;;;;;7.28;3.35;;;;;;;;;;4995454;28;20026;-85
2022/04/07 00:06:19;;;;;;;7.13;3.97;;;;;;;;;;4993647;28;20026;-86
2022/04/07 00:08:45;;;;;;;8.52;3.55;;;;;;;;;;4995134;28;20045;-84
2022/04/07 00:11:11;;;;;;;6.70;3.50;;;;;;;;;;4995024;28;20150;-85
2022/04/07 00:13:37;;;;;;;6.43;3.45;;;;;;;;;;4995098;28;20121;-86
2022/04/07 00:16:04;;;;;;;4.38;3.22;;;;;;;;;;4995034;28;20022;-85
2022/04/07 00:18:30;;;;;;;6.78;3.72;;;;;;;;;;5006212;28;20068;-85
2022/04/07 00:20:56;;;;;;;5.25;3.38;;;;;;;;;;5016755;28;20029;-87
2022/04/07 00:23:23;;;;;;;5.97;3.33;;;;;;;;;;5012406;28;20038;-87
2022/04/07 00:25:49;;;;;;;6.65;3.33;;;;;;;;;;5002727;28;20034;-86
2022/04/07 00:28:15;;;;;;;8.93;3.22;;;;;;;;;;5016148;28;20026;-86
2022/04/07 00:30:43;;;;;;;5.07;3.13;;;;;;;;;;5017075;28;20033;-85
2022/04/07 00:33:09;;;;;;;6.47;2.95;;;;;;;;;;5017062;28;20022;-85
2022/04/07 00:35:35;;;;;;;5.93;3.40;;;;;;;;;;4996577;28;20141;-85
2022/04/07 00:38:01;;;;;;;4.72;3.08;;;;;;;;;;4994879;28;20034;-86
2022/04/07 00:40:27;;;;;;;4.40;3.55;;;;;;;;;;4995400;28;20048;-86
2022/04/07 00:42:53;;;;;;;8.10;3.22;;;;;;;;;;4993932;28;20041;-85
2022/04/07 00:45:20;;;;;;;4.05;3.20;;;;;;;;;;4994460;28;20027;-85
2022/04/07 00:47:47;;;;;;;6.03;3.35;;;;;;;;;;4996028;28;20030;-85
2022/04/07 00:50:14;;;;;;;4.70;2.88;;;;;;;;;;4996059;28;20022;-85
2022/04/07 00:52:45;;;;;;;5.43;3.00;;;;;;;;;;4994684;28;20030;-86
2022/04/07 00:55:12;;;;;;;4.80;3.33;;;;;;;;;;4993583;28;20031;-87
2022/04/07 00:57:41;;;;;;;6.63;3.08;;;;;;;;;;4993584;28;20033;-85
2022/04/07 01:00:08;;;;;;;4.43;2.63;;;;;;;;;;4995180;28;20104;-85
2022/04/07 01:02:35;;;;;;;5.75;2.92;;;;;;;;;;4983496;28;20026;-86
2022/04/07 01:05:01;;;;;;;7.32;2.75;;;;;;;;;;4975412;28;20470;-86
2022/04/07 01:07:28;;;;;;;4.25;3.00;;;;;;;;;;4975909;28;20023;-85
2022/04/07 01:09:54;;;;;;;4.90;3.42;;;;;;;;;;4992870;28;20034;-85
2022/04/07 01:12:20;;;;;;;6.43;3.00;;;;;;;;;;4995599;28;20585;-86
2022/04/07 01:14:53;;;;;;;7.90;3.88;;;;;;;;;;4994916;28;20031;-85
2022/04/07 01:17:20;;;;;;;6.25;3.22;;;;;;;;;;4998774;28;20029;-85
2022/04/07 01:19:46;;;;;;;6.53;3.20;;;;;;;;;;5015199;28;20037;-85
2022/04/07 01:22:13;;;;;;;6.85;3.03;;;;;;;;;;5012532;28;20030;-85
2022/04/07 01:24:39;;;;;;;5.78;3.42;;;;;;;;;;5000393;28;20083;-85
2022/04/07 01:27:05;;;;;;;4.00;2.97;;;;;;;;;;5026031;28;20035;-88
2022/04/07 01:29:31;;;;;;;3.13;2.67;;;;;;;;;;5002855;28;20041;-86
2022/04/07 01:32:00;;;;;;;5.72;3.17;;;;;;;;;;4999156;28;20026;-87
2022/04/07 01:34:26;;;;;;;5.55;3.03;;;;;;;;;;4999268;28;20031;-87
2022/04/07 01:36:53;;;;;;;3.42;2.90;;;;;;;;;;4997686;28;20673;-85
2022/04/07 01:39:21;;;;;;;8.05;2.88;;;;;;;;;;4998182;28;20069;-87
2022/04/07 01:41:48;;;;;;;4.55;2.75;;;;;;;;;;4996489;28;20023;-86
2022/04/07 01:44:16;;;;;;;5.57;2.92;;;;;;;;;;4997323;28;20101;-86
2022/04/07 01:46:42;;;;;;;3.22;2.70;;;;;;;;;;4995563;28;20387;-86
2022/04/07 01:49:08;;;;;;;4.90;2.38;;;;;;;;;;4997239;28;20022;-86
2022/04/07 01:51:34;;;;;;;5.15;2.85;;;;;;;;;;4997272;28;20092;-86
2022/04/07 01:54:01;;;;;;;4.10;2.97;;;;;;;;;;4996142;28;20473;-86
2022/04/07 01:56:30;;;;;;;3.72;2.72;;;;;;;;;;4996928;28;20022;-86
2022/04/07 01:58:56;;;;;;;3.40;2.83;;;;;;;;;;4996614;28;20025;-86
2022/04/07 02:01:22;;;;;;;4.22;3.08;;;;;;;;;;4995052;28;20121;-86
2022/04/07 02:03:48;;;;;;;4.47;3.10;;;;;;;;;;4996819;28;20077;-85
2022/04/07 02:06:15;;;;;;;3.58;3.03;;;;;;;;;;4996005;28;20139;-85
2022/04/07 02:08:41;;;;;;;3.63;2.88;;;;;;;;;;4995705;28;20033;-86
2022/04/07 02:11:10;;;;;;;7.88;3.95;;;;;;;;;;4995937;28;20026;-85
2022/04/07 02:13:38;;;;;;;3.70;2.90;;;;;;;;;;4997893;28;20018;-85
2022/04/07 02:16:04;;;;;;;6.78;3.15;;;;;;;;;;4998739;28;20092;-86
2022/04/07 02:18:30;;;;;;;7.03;4.03;;;;;;;;;;5096950;22;20493;-85
2022/04/07 02:20:57;;;;;;;8.32;3.38;;;;;;;;;;5051443;28;20036;-87
2022/04/07 02:23:23;;;;;;;6.47;3.33;;;;;;;;;;5063671;28;20032;-86
2022/04/07 02:25:49;;;;;;;4.90;3.15;;;;;;;;;;5043525;28;20060;-86
2022/04/07 02:28:15;;;;;;;6.30;3.65;;;;;;;;;;5022416;28;20120;-87
2022/04/07 02:30:41;;;;;;;4.82;2.95;;;;;;;;;;5021268;28;20056;-86
2022/04/07 02:33:07;;;;;;;3.33;2.92;;;;;;;;;;5040744;28;20029;-86
2022/04/07 02:35:34;;;;;;;5.78;3.08;;;;;;;;;;5040257;28;20589;-86
2022/04/07 02:38:00;;;;;;;3.35;2.88;;;;;;;;;;5024328;28;20029;-88
2022/04/07 02:40:26;;;;;;;4.00;2.80;;;;;;;;;;5044661;28;20041;-86
2022/04/07 02:42:52;;;;;;;5.90;2.95;;;;;;;;;;5043571;28;20033;-86
2022/04/07 02:45:18;;;;;;;4.85;2.42;;;;;;;;;;5026784;28;20033;-87
2022/04/07 02:47:46;;;;;;;4.25;2.35;;;;;;;;;;5027166;28;20030;-86
2022/04/07 02:50:13;;;;;;;2.95;2.25;;;;;;;;;;5023852;28;20026;-86
2022/04/07 02:52:38;;;;;;;3.47;2.38;;;;;;;;;;5023414;28;20476;-87
2022/04/07 02:55:07;;;;;;;3.10;2.75;;;;;;;;;;5022936;28;20018;-85
2022/04/07 02:57:33;;;;;;;3.40;2.25;;;;;;;;;;5022576;28;20483;-86
2022/04/07 02:59:59;;;;;;;3.15;2.45;;;;;;;;;;5022690;28;20440;-86
2022/04/07 03:02:27;;;;;;;3.03;2.70;;;;;;;;;;5029469;28;20029;-86
2022/04/07 03:04:53;;;;;;;3.70;2.22;;;;;;;;;;5042718;28;20026;-85
2022/04/07 03:07:22;;;;;;;5.85;2.00;;;;;;;;;;5009650;28;20056;-87
2022/04/07 03:09:48;;;;;;;5.55;2.33;;;;;;;;;;5022406;28;20113;-87
2022/04/07 03:12:14;;;;;;;2.53;2.25;;;;;;;;;;5022040;28;20032;-87
2022/04/07 03:14:40;;;;;;;2.38;1.90;;;;;;;;;;5024030;28;20433;-86
2022/04/07 03:17:07;;;;;;;3.40;2.08;;;;;;;;;;5024158;28;20222;-86
2022/04/07 03:19:34;;;;;;;2.58;1.85;;;;;;;;;;5042785;28;20033;-87
2022/04/07 03:22:00;;;;;;;3.20;1.60;;;;;;;;;;5027623;28;20493;-87
2022/04/07 03:24:26;;;;;;;2.63;1.90;;;;;;;;;;5034564;28;20489;-88
2022/04/07 03:26:52;;;;;;;2.92;1.70;;;;;;;;;;5033227;28;20037;-87
2022/04/07 03:29:20;;;;;;;2.17;1.50;;;;;;;;;;5028698;28;20491;-87
2022/04/07 03:31:47;;;;;;;1.75;1.65;;;;;;;;;;5045596;28;20370;-87
2022/04/07 03:34:13;;;;;;;4.25;1.60;;;;;;;;;;5029444;28;20025;-85
2022/04/07 03:36:39;;;;;;;3.63;1.73;;;;;;;;;;5047243;28;20543;-86
2022/04/07 03:39:04;;;;;;;1.98;1.63;;;;;;;;;;5046255;28;20025;-87
2022/04/07 03:41:30;;;;;;;1.42;1.33;;;;;;;;;;5045202;28;20075;-86
2022/04/07 03:43:57;;;;;;;4.10;1.50;;;;;;;;;;5045941;28;20025;-86
2022/04/07 03:46:23;;;;;;;1.50;1.40;;;;;;;;;;5044419;28;20017;-86
2022/04/07 03:48:49;;;;;;;1.83;1.60;;;;;;;;;;5041426;28;20033;-88
2022/04/07 03:51:15;;;;;;;1.75;1.55;;;;;;;;;;5025274;28;20053;-88
2022/04/07 03:53:41;;;;;;;2.95;1.60;;;;;;;;;;5043782;28;20022;-87
2022/04/07 03:56:07;;;;;;;1.55;1.45;;;;;;;;;;5025032;28;20039;-88
2022/04/07 03:58:34;;;;;;;1.33;1.23;;;;;;;;;;5024921;28;20022;-87
2022/04/07 04:01:00;;;;;;;3.17;1.92;;;;;;;;;;5042970;28;20036;-87
2022/04/07 04:03:26;;;;;;;1.60;1.50;;;;;;;;;;5023315;28;20034;-87
2022/04/07 04:05:52;;;;;;;1.50;1.40;;;;;;;;;;5047419;28;20052;-86
2022/04/07 04:08:18;;;;;;;2.08;1.70;;;;;;;;;;5028052;28;20029;-86
2022/04/07 04:10:44;;;;;;;2.08;1.88;;;;;;;;;;5044144;28;20211;-86
2022/04/07 04:13:10;;;;;;;3.40;1.48;;;;;;;;;;5045906;28;20545;-87
2022/04/07 04:15:36;;;;;;;1.50;1.40;;;;;;;;;;5044465;28;20025;-88
2022/04/07 04:18:02;;;;;;;2.75;1.70;;;;;;;;;;5034639;28;20116;-86
2022/04/07 04:20:28;;;;;;;2.03;1.27;;;;;;;;;;5045093;28;20036;-86
2022/04/07 04:22:54;;;;;;;1.50;1.30;;;;;;;;;;5027435;28;20029;-87
2022/04/07 04:25:20;;;;;;;1.45;1.35;;;;;;;;;;5045432;28;20035;-86
2022/04/07 04:27:46;;;;;;;2.90;1.40;;;;;;;;;;5045066;28;20048;-86
2022/04/07 04:30:18;;;;;;;2.70;1.70;;;;;;;;;;5041963;28;20040;-86
2022/04/07 04:32:44;;;;;;;1.73;1.20;;;;;;;;;;5043006;28;20367;-87
2022/04/07 04:35:10;;;;;;;2.80;1.45;;;;;;;;;;5026611;28;20021;-86
2022/04/07 04:37:39;;;;;;;1.48;1.38;;;;;;;;;;5045052;28;20030;-87
2022/04/07 04:40:06;;;;;;;1.90;1.42;;;;;;;;;;5027372;28;20036;-87
2022/04/07 04:42:32;;;;;;;1.73;1.63;;;;;;;;;;5045978;28;20026;-86
2022/04/07 04:44:58;;;;;;;3.40;1.67;;;;;;;;;;5046448;28;20033;-87
2022/04/07 04:47:24;;;;;;;3.67;1.30;;;;;;;;;;5028208;28;20089;-85
2022/04/07 04:49:51;;;;;;;2.17;1.50;;;;;;;;;;5030075;28;20030;-87
2022/04/07 04:52:17;;;;;;;3.10;1.65;;;;;;;;;;5047400;28;20048;-86
2022/04/07 04:54:43;;;;;;;1.88;1.25;;;;;;;;;;5045285;28;20028;-85
2022/04/07 04:57:09;;;;;;;6.28;1.20;;;;;;;;;;5032536;28;20030;-86
2022/04/07 04:59:35;;;;;;;1.98;1.25;;;;;;;;;;5024608;28;20038;-85
2022/04/07 05:02:01;;;;;;;1.85;1.10;;;;;;;;;;5024706;28;20053;-88
2022/04/07 05:04:27;;;;;;;2.72;1.50;;;;;;;;;;5026069;28;20026;-88
2022/04/07 05:06:53;;;;;;;1.67;0.98;;;;;;;;;;5044749;28;20101;-87
2022/04/07 05:09:19;;;;;;;2.72;1.10;;;;;;;;;;5026613;28;20037;-86
2022/04/07 05:11:45;;;;;;;2.13;1.40;;;;;;;;;;5027049;28;20030;-87
2022/04/07 05:14:11;;;;;;;4.43;1.30;;;;;;;;;;5025377;28;20040;-88
2022/04/07 05:16:37;;;;;;;3.60;1.35;;;;;;;;;;5007618;28;20052;-88
2022/04/07 05:19:03;;;;;;;3.97;1.33;;;;;;;;;;5042640;28;20493;-88
2022/04/07 05:21:29;;;;;;;2.03;1.30;;;;;;;;;;5039066;28;20033;-87
2022/04/07 05:23:55;;;;;;;1.75;1.40;;;;;;;;;;5024941;28;20026;-88
2022/04/07 05:26:21;;;;;;;1.52;1.25;;;;;;;;;;5024574;28;20053;-87
2022/04/07 05:28:47;;;;;;;3.28;1.25;;;;;;;;;;5025054;28;20034;-87
2022/04/07 05:31:13;;;;;;;3.25;1.20;;;;;;;;;;5026960;28;20026;-86
2022/04/07 05:33:39;;;;;;;2.88;1.13;;;;;;;;;;5025412;28;20110;-87
2022/04/07 05:36:05;;;;;;;2.97;1.42;;;;;;;;;;5025324;28;20549;-85
2022/04/07 05:38:31;;;;;;;4.57;1.20;;;;;;;;;;5026921;28;20049;-88
2022/04/07 05:40:57;;;;;;;1.88;1.13;;;;;;;;;;5025797;28;20037;-88
2022/04/07 05:43:23;;;;;;;1.48;1.38;;;;;;;;;;5021908;28;20030;-86
2022/04/07 05:45:50;;;;;;;4.80;1.77;;;;;;;;;;5006219;28;20060;-87
2022/04/07 05:48:17;;;;;;;1.27;1.15;;;;;;;;;;5042300;28;20037;-85
2022/04/07 05:50:43;;;;;;;3.42;1.52;;;;;;;;;;5027074;28;20026;-87
2022/04/07 05:53:10;;;;;;;1.02;0.98;;;;;;;;;;5043760;28;20032;-86
2022/04/07 05:55:36;;;;;;;1.83;1.25;;;;;;;;;;5043806;28;20026;-87
2022/04/07 05:58:06;;;;;;;1.23;1.13;;;;;;;;;;5024141;28;20100;-86
2022/04/07 06:00:32;;;;;;;1.38;1.17;;;;;;;;;;5013208;28;20044;-87
2022/04/07 06:02:59;;;;;;;3.88;1.20;;;;;;;;;;5024624;28;20032;-87
2022/04/07 06:05:25;;;;;;;1.88;1.20;;;;;;;;;;5024097;28;20057;-87
2022/04/07 06:07:51;;;;;;;5.35;1.65;;;;;;;;;;5044835;28;20513;-87
2022/04/07 06:10:17;;;;;;;3.42;1.20;;;;;;;;;;5027426;28;20025;-87
2022/04/07 06:12:45;;;;;;;4.05;1.48;;;;;;;;;;5016281;28;20060;-86
2022/04/07 06:15:12;;;;;;;3.72;1.20;;;;;;;;;;5007529;28;20022;-85
2022/04/07 06:17:44;;;;;;;1.65;1.25;;;;;;;;;;5014568;28;20030;-87
2022/04/07 06:20:10;;;;;;;1.63;1.33;;;;;;;;;;5026064;28;20045;-85
2022/04/07 06:22:36;;;;;;;3.05;1.38;;;;;;;;;;5026831;28;20042;-84
2022/04/07 06:25:03;;;;;;;3.55;1.52;;;;;;;;;;5029708;28;20551;-85
2022/04/07 06:28:02;;;;;;;6.72;1.95;;;;;;;;;;5046892;28;20029;-86
2022/04/07 06:30:28;;;;;;;1.88;1.40;;;;;;;;;;5036973;28;20029;-85
2022/04/07 06:32:56;;;;;;;3.47;1.10;;;;;;;;;;5028095;28;20116;-85
2022/04/07 06:35:22;;;;;;;2.17;1.30;;;;;;;;;;5027539;28;20030;-87
2022/04/07 06:37:53;;;;;;;2.47;1.23;;;;;;;;;;5045769;28;20085;-86
2022/04/07 06:40:20;;;;;;;1.75;1.20;;;;;;;;;;5028679;28;20052;-87
2022/04/07 06:42:47;;;;;;;1.42;1.00;;;;;;;;;;5040926;28;20037;-87
2022/04/07 06:45:13;;;;;;;3.35;1.33;;;;;;;;;;5045279;28;20019;-87
2022/04/07 06:47:39;;;;;;;1.33;1.23;;;;;;;;;;5023717;28;20053;-87
2022/04/07 06:50:10;;;;;;;3.53;1.27;;;;;;;;;;5040459;28;20036;-87
2022/04/07 06:52:36;;;;;;;2.47;1.30;;;;;;;;;;5023777;28;20044;-87
2022/04/07 06:55:02;;;;;;;1.75;1.48;;;;;;;;;;5013251;28;20026;-86
2022/04/07 06:57:28;;;;;;;1.67;1.23;;;;;;;;;;5035125;28;20038;-87
2022/04/07 06:59:54;;;;;;;2.25;0.95;;;;;;;;;;5025299;28;20529;-87
2022/04/07 07:02:20;;;;;;;3.55;1.45;;;;;;;;;;5018165;28;20030;-83
2022/04/07 07:04:46;;;;;;;2.40;1.40;;;;;;;;;;5017874;28;20044;-82
2022/04/07 07:07:13;;;;;;;1.45;0.95;;;;;;;;;;5025714;28;20021;-83
2022/04/07 07:09:41;;;;;;;2.08;1.00;;;;;;;;;;5031737;28;20493;-84
2022/04/07 07:12:07;;;;;;;1.77;1.05;;;;;;;;;;5012701;28;20427;-84
2022/04/07 07:14:43;;;;;;;1.08;0.85;;;;;;;;;;5036189;28;20021;-86
2022/04/07 07:17:10;;;;;;;1.38;1.10;;;;;;;;;;4999324;28;20132;-87
2022/04/07 07:19:36;;;;;;;1.65;1.00;;;;;;;;;;5036022;28;20476;-85
2022/04/07 07:22:05;;;;;;;3.08;1.38;;;;;;;;;;5035297;28;20045;-85
2022/04/07 07:24:31;;;;;;;1.00;0.90;;;;;;;;;;5035634;28;20021;-82
2022/04/07 07:26:57;;;;;;;1.77;1.02;;;;;;;;;;5010639;28;20148;-82
2022/04/07 07:29:23;;;;;;;1.98;1.00;;;;;;;;;;5033791;28;20070;-83
2022/04/07 07:31:49;;;;;;;1.08;0.98;;;;;;;;;;5029267;28;20026;-85
2022/04/07 07:34:15;;;;;;;0.82;0.82;;;;;;;;;;5021446;28;20405;-84
2022/04/07 07:36:41;;;;;;;2.85;0.80;;;;;;;;;;5034762;28;20520;-86
2022/04/07 07:39:08;;;;;;;1.77;1.00;;;;;;;;;;5004102;28;20026;-83
2022/04/07 07:41:36;;;;;;;1.65;0.90;;;;;;;;;;5020417;28;20033;-86
2022/04/07 07:44:02;;;;;;;1.48;1.10;;;;;;;;;;5020961;28;20010;-82
2022/04/07 07:46:30;;;;;;;3.15;1.20;;;;;;;;;;4998425;28;20436;-84
2022/04/07 07:48:56;;;;;;;0.70;0.70;;;;;;;;;;5010787;28;20095;-84
2022/04/07 07:51:22;;;;;;;2.17;0.80;;;;;;;;;;5017739;28;20036;-84
2022/04/07 07:53:48;;;;;;;1.23;0.98;;;;;;;;;;5019137;28;20018;-85
2022/04/07 07:56:14;;;;;;;2.30;0.93;;;;;;;;;;5023395;28;20030;-85
2022/04/07 07:58:41;;;;;;;2.03;0.90;;;;;;;;;;5007006;28;20026;-84
2022/04/07 08:01:07;;;;;;;0.90;0.90;;;;;;;;;;5021082;28;20026;-84
2022/04/07 08:03:32;;;;;;;2.05;1.00;;;;;;;;;;5014082;28;20026;-85
2022/04/07 08:05:59;;;;;;;2.53;0.82;;;;;;;;;;5013225;28;20397;-84
2022/04/07 08:08:25;;;;;;;2.08;0.90;;;;;;;;;;5014316;28;20224;-84
2022/04/07 08:10:51;;;;;;;2.75;1.02;;;;;;;;;;5018082;28;20470;-84
2022/04/07 08:13:17;;;;;;;2.17;1.10;;;;;;;;;;5017460;28;20030;-86
2022/04/07 08:15:43;;;;;;;0.88;0.88;;;;;;;;;;5018201;28;20035;-84
2022/04/07 08:18:09;;;;;;;1.00;0.70;;;;;;;;;;5054421;22;20025;-86
2022/04/07 08:20:35;;;;;;;1.80;0.85;;;;;;;;;;5012365;28;20048;-89
2022/04/07 08:23:01;;;;;;;2.97;0.70;;;;;;;;;;5014472;28;20014;-85
2022/04/07 08:25:27;;;;;;;1.77;0.82;;;;;;;;;;5029649;28;20022;-86
2022/04/07 08:27:53;;;;;;;1.40;0.82;;;8.40;99.90;;;;;;5013704;28;20449;-85
2022/04/07 08:30:19;;;;;;;0.80;0.80;;;8.60;99.90;;;;;;5013771;28;20024;-88
2022/04/07 08:32:44;;;;;;;1.80;0.70;;;8.60;99.90;;;;;;5013830;28;20022;-87
2022/04/07 08:35:10;;;;;;;1.10;0.70;;;8.60;99.90;;;;;;5013909;28;20108;-85
2022/04/07 08:37:37;;;;;;;2.90;1.00;;;8.60;99.90;;;;;;5011876;28;20438;-85
2022/04/07 08:40:06;;;;;;;2.25;1.17;;;8.70;99.90;;;;;;5013668;28;20096;-85
2022/04/07 08:42:33;;;;;;;2.92;0.73;;;8.80;99.90;;;;;;5013898;28;20038;-88
2022/04/07 08:44:59;;;;;;;0.80;0.60;;;8.70;99.90;;;;;;5013458;28;20030;-86
2022/04/07 08:47:25;;;;;;;0.80;0.70;;;8.80;99.90;;;;;;5013335;28;20486;-85
2022/04/07 08:49:51;;;;;;;0.73;0.60;;;8.80;99.90;;;;;;5012379;28;20025;-86
2022/04/07 08:52:18;;;;;;;3.72;0.80;;;8.90;99.90;;;;;;5013565;28;20053;-86
2022/04/07 08:54:45;;;;;;;0.60;0.60;;;8.90;99.90;;;;;;4976245;28;20065;-88
2022/04/07 08:57:11;;;;;;;1.60;0.80;;;8.90;99.90;;;;;;4976326;28;20303;-88
2022/04/07 08:59:37;;;;;;;1.80;0.80;;;8.90;99.90;;;;;;4977543;28;20387;-88
2022/04/07 09:02:04;;;;;;;1.10;0.75;;;8.90;99.90;;;;;;4976076;28;20033;-88
2022/04/07 09:04:31;;;;;;;1.13;0.88;;;8.80;99.90;;;;;;4993712;28;20100;-88
2022/04/07 09:06:58;;;;;;;2.38;0.70;;;8.80;99.90;;;;;;4993540;28;20050;-88
2022/04/07 09:09:24;;;;;;;3.15;0.93;;;8.80;99.90;;;;;;4993214;28;20107;-88
2022/04/07 09:11:56;;;;;;;2.67;1.00;;;8.80;99.90;;;;;;4993588;28;20514;-88
2022/04/07 09:14:22;;;;;;;0.73;0.63;;;8.80;99.90;;;;;;4993443;28;20161;-88
2022/04/07 09:16:53;;;;;;;0.77;0.60;;;8.80;99.90;;;;;;4993336;28;20023;-86
2022/04/07 09:19:21;;;;;;;1.65;1.55;;;8.80;99.90;;;;;;5012429;28;20038;-86
2022/04/07 09:21:48;;;;;;;0.80;0.80;;;8.80;99.90;;;;;;5012949;28;20048;-87
2022/04/07 09:24:15;;;;;;;1.45;0.88;;;8.80;99.90;;;;;;4995144;28;20026;-87
2022/04/07 09:26:43;;;;;;;0.80;0.80;;;8.90;99.90;;;;;;4995061;28;20022;-87
2022/04/07 09:29:14;;;;;;;1.15;0.70;;;8.90;99.90;;;;;;5012921;28;20022;-87
2022/04/07 09:31:40;;;;;;;;;;;8.90;99.90;;;;;;5013134;28;20382;-87
2022/04/07 09:34:06;;;;;;;0.90;0.73;;;8.90;99.90;;;;;;5011304;28;19905;-87
2022/04/07 09:36:32;;;;;;;0.65;0.65;;;9.00;99.90;;;;;;5011461;28;20488;-87
2022/04/07 09:39:00;;;;;;;0.57;0.55;;;9.00;99.90;;;;;;5013219;28;20025;-86
2022/04/07 09:41:28;;;;;;;1.13;1.00;;;9.10;99.90;;;;;;5011415;28;20030;-87
2022/04/07 09:43:59;;;;;;;0.70;0.70;;;9.10;99.90;;;;;;5012622;28;20034;-87
2022/04/07 09:46:27;;;;;;;1.35;0.80;;;9.10;99.90;;;;;;5012307;28;20029;-87
2022/04/07 09:49:13;;;;;;;0.60;0.60;;;9.20;99.90;;;;;;5012583;28;20088;-87
2022/04/07 09:51:40;;;;;;;0.82;0.70;;;9.30;99.90;;;;;;5010675;28;20022;-87
2022/04/07 09:54:09;;;;;;;1.67;0.90;;;9.40;99.90;;;;;;5012319;28;20072;-86
2022/04/07 09:56:35;;;;;;;0.85;0.60;;;9.20;99.90;;;;;;5011162;28;20034;-87
2022/04/07 09:59:05;;;;;;;1.85;0.70;;;9.10;99.90;;;;;;5011992;28;20149;-86
2022/04/07 10:01:32;;;;;;;1.75;0.80;;;9.10;99.90;;;;;;5012454;28;20034;-87
2022/04/07 10:03:58;;;;;;;0.80;0.60;;;9.00;99.90;;;;;;5012213;28;20030;-87
2022/04/07 10:06:24;;;;;;;0.75;0.75;;;9.10;99.90;;;;;;5011078;28;20021;-87
2022/04/07 10:08:51;;;;;;;0.65;0.60;;;9.10;99.90;;;;;;5012003;28;20026;-87
2022/04/07 10:11:17;;;;;;;0.68;0.68;;;9.20;99.90;;;;;;5010757;28;20040;-86
2022/04/07 10:13:46;;;;;;;0.75;0.50;;;9.10;99.90;;;;;;5012002;28;20033;-87
2022/04/07 10:16:16;;;;;;;1.15;0.80;;;9.20;99.90;;;;;;5011008;28;20029;-86
2022/04/07 10:18:59;;;;;;;0.75;0.63;;;9.20;99.90;;;;;;4999572;28;20112;-86
2022/04/07 10:21:53;;;;;;;0.50;0.50;;;9.30;99.90;;;;;;4994580;28;20141;-88
2022/04/07 10:24:33;;;;;;;1.65;0.60;;;9.30;99.90;;;;;;4994492;28;20026;-87
2022/04/07 10:27:04;;;;;;;0.75;0.60;;;9.40;99.90;;;;;;4995484;28;20028;-87
2022/04/07 10:29:30;;;;;;;0.80;0.60;;;9.40;99.90;;;;;;5010708;28;20021;-86
2022/04/07 10:32:11;;;;;;;0.60;0.50;;;9.40;99.90;;;;;;5010981;28;20033;-86
2022/04/07 10:34:37;;;;;;;0.52;0.43;;;;;;;;;;5010597;28;20030;-86
2022/04/07 10:37:05;;;;;;;1.92;0.55;;;;;;;;;;5011791;28;20025;-86
2022/04/07 10:39:37;;;;;;;0.60;0.60;;;;;;;;;;5011811;28;20022;-87
2022/04/07 10:42:05;;;;;;;0.63;0.60;;;;;;;;;;5011843;28;20064;-86
2022/04/07 10:44:31;;;;;;;5.97;0.60;;;;;;;;;;5010570;28;20057;-86
2022/04/07 10:47:09;;;;;;;0.43;0.43;;;;;;;;;;5011738;28;20033;-87
2022/04/07 10:49:35;;;;;;;0.45;0.45;;;;;;;;;;5011678;28;20033;-86
2022/04/07 10:52:04;;;;;;;1.00;0.57;;;;;;;;;;5012191;28;20026;-86
2022/04/07 10:54:30;;;;;;;0.65;0.65;;;;;;;;;;5012226;28;20014;-86
2022/04/07 10:57:01;;;;;;;0.40;0.40;;;;;;;;;;5010620;28;20030;-86
2022/04/07 10:59:32;;;;;;;0.43;0.43;;;;;;;;;;5012235;28;20026;-86
2022/04/07 11:02:10;;;;;;;0.68;0.50;;;;;;;;;;5011571;28;20014;-86
2022/04/07 11:04:36;;;;;;;0.80;0.40;;;;;;;;;;5010693;28;20038;-86
2022/04/07 11:07:08;;;;;;;0.40;0.40;;;;;;;;;;5010444;28;20101;-86
2022/04/07 11:09:52;;;;;;;0.30;0.30;;;;;;;;;;5010381;28;20045;-86
2022/04/07 11:12:22;;;;;;;0.40;0.40;;;;;;;;;;5010260;28;20025;-86
2022/04/07 11:14:49;;;;;;;0.50;0.50;;;;;;;;;;5010598;28;20026;-86
2022/04/07 11:17:22;;;;;;;0.93;0.40;;;;;;;;;;5011442;28;20783;-86
2022/04/07 11:20:07;;;;;;;0.85;0.30;;;;;;;;;;5012422;28;20040;-86
2022/04/07 11:22:55;;;;;;;0.40;0.40;;;10.40;99.90;;;;;;5017173;28;20033;-85
2022/04/07 11:25:29;;;;;;;0.85;0.47;;;10.30;99.90;;;;;;4994120;28;20305;-87
2022/04/07 11:28:10;;;;;;;0.80;0.50;;;10.30;99.90;;;;;;5015396;28;20052;-86
2022/04/07 11:30:49;;;;;;;0.50;0.50;;;10.20;99.90;;;;;;5012048;28;20382;-87
2022/04/07 11:33:26;;;;;;;0.88;0.73;;;10.30;99.90;;;;;;5011678;28;20034;-87
2022/04/07 11:36:00;;;;;;;0.60;0.60;;;10.50;99.90;;;;;;5011495;28;20410;-86
2022/04/07 11:38:54;;;;;;;0.85;0.63;;;10.60;99.90;;;;;;5010883;28;20551;-86
2022/04/07 11:41:20;;;;;;;0.40;0.40;;;10.60;99.90;;;;;;5012067;28;20026;-87
2022/04/07 11:43:48;;;;;;;0.50;0.50;;;10.60;99.90;;;;;;5014574;28;20062;-86
2022/04/07 11:46:14;;;;;;;0.57;0.50;;;10.70;99.90;;;;;;5014801;28;20116;-87
2022/04/07 11:48:40;;;;;;;0.80;0.40;;;10.70;99.90;;;;;;5013475;28;20030;-86
2022/04/07 11:51:14;;;;;;;1.23;0.60;;;10.70;99.90;;;;;;5022318;28;20451;-86
2022/04/07 11:53:41;;;;;;;0.40;0.40;;;10.80;99.90;;;;;;5038311;28;20064;-87
2022/04/07 11:56:17;;;;;;;5.00;0.50;;;10.70;99.90;;;;;;5038718;28;20010;-86
2022/04/07 11:58:48;;;;;;;0.90;0.57;;;10.70;99.90;;;;;;5038744;28;20022;-89
2022/04/07 12:01:14;;;;;;;0.40;0.40;;;10.60;99.90;;;;;;5038651;28;20053;-87
2022/04/07 12:03:40;;;;;;;1.17;0.55;;;10.70;99.90;;;;;;5034212;28;20030;-86
2022/04/07 12:06:06;;;;;;;0.85;0.50;;;10.70;99.90;;;;;;5013252;28;20022;-86
2022/04/07 12:08:32;;;;;;;0.40;0.35;;;10.70;99.90;;;;;;5014076;28;20034;-87
2022/04/07 12:10:58;;;;;;;2.25;0.50;;;10.70;99.90;;;;;;5013723;28;20037;-86
2022/04/07 12:13:24;;;;;;;1.05;0.57;;;10.60;99.90;;;;;;5014228;28;20478;-87
2022/04/07 12:15:50;;;;;;;0.93;0.50;;;10.50;99.90;;;;;;5014215;28;20109;-87
2022/04/07 12:18:27;;;;;;;0.68;0.32;;;10.50;99.90;;;;;;5013820;28;20030;-87
2022/04/07 12:21:00;;;;;;;0.75;0.50;;;10.50;99.90;;;;;;5014217;28;20080;-87
2022/04/07 12:23:27;;;;;;;0.57;0.57;;;10.60;99.90;;;;;;4996444;28;20171;-87
2022/04/07 12:26:01;;;;;;;0.50;0.50;;;10.60;99.90;;;;;;5013832;28;20053;-87
2022/04/07 12:28:40;;;;;;;1.13;0.52;;;10.50;99.90;;;;;;5013815;28;20030;-87
2022/04/07 12:31:11;;;;;;;0.40;0.40;;;10.60;99.90;;;;;;5013973;28;20021;-88
2022/04/07 12:33:42;;;;;;;0.50;0.50;;;10.60;99.90;;;;;;5013739;28;20486;-87
2022/04/07 12:36:32;;;;;;;;;;;10.60;99.90;;;;;;5012899;28;20317;-87
2022/04/07 12:39:08;;;;;;;0.75;0.50;;;10.70;99.90;;;;;;4999958;28;20369;-87
2022/04/07 12:41:44;;;;;;;0.73;0.50;;;10.60;99.90;;;;;;5012262;28;20030;-87
2022/04/07 12:44:22;;;;;;;0.50;0.50;;;10.50;99.90;;;;;;5014068;28;20018;-87
2022/04/07 12:46:51;;;;;;;0.57;0.52;;;10.40;99.90;;;;;;5013569;28;20049;-87
2022/04/07 12:49:32;;;;;;;1.60;0.60;;;10.40;99.90;;;;;;5013588;28;20076;-87
2022/04/07 12:52:11;;;;;;;0.55;0.55;;;10.50;99.90;;;;;;5013480;28;20022;-87
2022/04/07 12:54:38;;;;;;;0.60;0.60;;;10.50;99.90;;;;;;5012880;28;20452;-86
2022/04/07 12:57:12;;;;;;;0.60;0.50;;;10.60;99.90;;;;;;5012006;28;20026;-86
2022/04/07 12:59:41;;;;;;;1.27;0.57;;;10.50;99.90;;;;;;5013283;28;20101;-87
2022/04/07 13:02:08;;;;;;;2.95;0.60;;;10.50;99.90;;;;;;5013309;28;20048;-86
2022/04/07 13:04:49;;;;;;;0.60;0.60;;;10.50;99.90;;;;;;5013335;28;20033;-86
2022/04/07 13:07:16;;;;;;;0.88;0.88;;;10.50;99.90;;;;;;5011814;28;20026;-87
2022/04/07 13:09:42;;;;;;;2.38;0.70;;;10.50;99.90;;;;;;5012840;28;20497;-87
2022/04/07 13:12:09;;;;;;;0.52;0.52;;;10.50;99.90;;;;;;5011677;28;20022;-86
2022/04/07 13:14:35;;;;;;;0.98;0.70;;;10.40;99.90;;;;;;5011746;28;20087;-87
2022/04/07 13:17:01;;;;;;;0.50;0.50;;;10.40;99.90;;;;;;5011893;28;20021;-86
2022/04/07 13:19:27;;;;;;;4.00;0.73;;;10.40;99.90;;;;;;5012572;28;20030;-86
2022/04/07 13:21:53;;;;;;;0.70;0.70;;;10.30;99.90;;;;;;4995387;28;20080;-86
2022/04/07 13:24:19;;;;;;;1.77;0.50;;;10.20;99.90;;;;;;5013341;28;20030;-86
2022/04/07 13:26:45;;;;;;;2.15;0.80;;;10.20;99.90;;;;;;5012804;28;20484;-87
2022/04/07 13:29:11;;;;;;;0.98;0.85;;;10.10;99.90;;;;;;5012574;28;20037;-86
2022/04/07 13:31:37;;;;;;;1.17;0.60;;;10.10;99.90;;;;;;5011371;28;20022;-86
2022/04/07 13:34:05;;;;;;;1.25;0.70;;;10.00;99.90;;;;;;5012522;28;20276;-86
2022/04/07 13:36:30;;;;;;;1.55;0.88;;;10.00;99.90;;;;;;5011427;28;20446;-86
2022/04/07 13:38:56;;;;;;;2.00;0.65;;;10.00;99.90;;;;;;5012763;28;20045;-86
2022/04/07 13:41:23;;;;;;;0.98;0.60;;;9.90;99.90;;;;;;5012512;28;20022;-87
2022/04/07 13:43:49;;;;;;;2.40;0.60;;;9.90;99.90;;;;;;5012499;28;20030;-86
2022/04/07 13:46:14;;;;;;;1.08;0.60;;;9.80;99.90;;;;;;5012496;28;20030;-87
2022/04/07 13:48:40;;;;;;;0.85;0.60;;;9.80;99.90;;;;;;5010846;28;20033;-85
2022/04/07 13:51:06;;;;;;;0.60;0.60;;;9.80;99.90;;;;;;5010894;28;20129;-85
2022/04/07 13:53:31;;;;;;;1.13;0.88;;;9.80;99.90;;;;;;5012412;28;20018;-86
2022/04/07 13:55:58;;;;;;;0.80;0.73;;;9.80;99.90;;;;;;5012636;28;20045;-86
2022/04/07 13:58:24;;;;;;;2.30;1.00;;;9.80;99.90;;;;;;5010826;28;20116;-87
2022/04/07 14:00:49;;;;;;;2.15;0.70;;;9.80;99.90;;;;;;5012244;28;20109;-86
2022/04/07 14:03:15;;;;;;;1.42;0.73;;;9.80;99.90;;;;;;5012105;28;20022;-87
2022/04/07 14:05:41;;;;;;;1.23;0.73;;;9.80;99.90;;;;;;5010314;28;20026;-87